createdAt,value
2024-04-10T00:01:20.164Z,5.95
2024-04-10T00:03:51.312Z,6.18
2024-04-10T00:06:22.408Z,5.15
2024-04-10T00:08:53.749Z,6.00
2024-04-10T00:11:25.188Z,5.55
2024-04-10T00:13:56.595Z,6.28
2024-04-10T00:16:25.011Z,5.85
2024-04-10T00:18:56.563Z,6.05
2024-04-10T00:21:31.883Z,6.20
2024-04-10T00:24:02.954Z,7.43
2024-04-10T00:26:31.391Z,6.32
2024-04-10T00:29:02.531Z,6.75
2024-04-10T00:31:31.092Z,5.78
2024-04-10T00:34:02.187Z,5.68
2024-04-10T00:36:33.261Z,5.35
2024-04-10T00:39:04.517Z,5.88
2024-04-10T00:41:32.895Z,8.13
2024-04-10T00:44:04.147Z,6.75
2024-04-10T00:46:34.480Z,5.18
2024-04-10T00:49:05.566Z,6.53
2024-04-10T00:51:36.717Z,6.57
2024-04-10T00:54:08.778Z,6.00
2024-04-10T00:56:37.662Z,6.13
2024-04-10T00:59:09.105Z,7.57
2024-04-10T01:01:37.781Z,7.95
2024-04-10T01:04:09.146Z,7.03
2024-04-10T01:06:40.247Z,7.80
2024-04-10T01:09:11.360Z,5.88
2024-04-10T01:11:39.983Z,6.53
2024-04-10T01:14:10.967Z,7.60
2024-04-10T01:16:39.473Z,7.57
2024-04-10T01:19:10.555Z,6.50
2024-04-10T01:21:41.598Z,7.60
2024-04-10T01:24:15.327Z,7.25
2024-04-10T01:26:43.800Z,7.20
2024-04-10T01:29:14.863Z,7.20
2024-04-10T01:31:43.107Z,7.63
2024-04-10T01:34:14.377Z,8.25
2024-04-10T01:36:42.690Z,8.02
2024-04-10T01:39:16.397Z,8.05
2024-04-10T01:41:44.713Z,7.57
2024-04-10T01:44:15.725Z,8.05
2024-04-10T01:46:44.079Z,8.10
2024-04-10T01:49:16.132Z,7.78
2024-04-10T01:51:44.513Z,8.13
2024-04-10T01:54:18.205Z,8.70
2024-04-10T01:56:49.217Z,8.40
2024-04-10T01:59:17.735Z,8.07
2024-04-10T02:01:48.817Z,9.02
2024-04-10T02:04:17.293Z,8.80
2024-04-10T02:06:48.303Z,10.30
2024-04-10T02:09:19.357Z,9.20
2024-04-10T02:11:50.507Z,9.70
2024-04-10T02:14:19.140Z,10.35
2024-04-10T02:16:50.553Z,10.48
2024-04-10T02:19:19.091Z,12.23
2024-04-10T02:21:50.180Z,12.80
2024-04-10T02:24:21.413Z,10.70
2024-04-10T02:26:52.749Z,12.05
2024-04-10T02:29:21.108Z,11.32
2024-04-10T02:31:52.428Z,11.23
2024-04-10T02:34:20.955Z,11.77
2024-04-10T02:36:52.402Z,11.30
2024-04-10T02:39:23.472Z,12.90
2024-04-10T02:41:54.435Z,9.88
2024-04-10T02:44:22.971Z,11.68
2024-04-10T02:46:54.803Z,11.15
2024-04-10T02:49:23.172Z,11.43
2024-04-10T02:51:54.402Z,10.45
2024-04-10T02:54:25.488Z,11.98
2024-04-10T02:56:56.608Z,9.57
2024-04-10T02:59:25.032Z,11.18
2024-04-10T03:01:56.157Z,8.93
2024-04-10T03:04:24.584Z,10.60
2024-04-10T03:06:56.767Z,10.13
2024-04-10T03:09:30.651Z,9.35
2024-04-10T03:12:02.030Z,10.00
2024-04-10T03:14:33.340Z,8.65
2024-04-10T03:17:04.507Z,9.18
2024-04-10T03:19:32.932Z,8.27
2024-04-10T03:22:03.931Z,8.57
2024-04-10T03:24:34.905Z,8.60
2024-04-10T03:27:06.334Z,8.45
2024-04-10T03:29:34.694Z,8.13
2024-04-10T03:32:05.860Z,7.10
2024-04-10T03:34:34.318Z,5.72
2024-04-10T03:37:06.269Z,5.78
2024-04-10T03:39:37.284Z,5.88
2024-04-10T03:42:08.727Z,5.95
2024-04-10T03:44:42.501Z,5.18
2024-04-10T03:47:14.508Z,4.93
2024-04-10T03:49:45.675Z,5.45
2024-04-10T03:52:13.915Z,4.88
2024-04-10T03:54:47.623Z,5.10
2024-04-10T03:57:15.988Z,4.82
2024-04-10T03:59:47.111Z,5.05
2024-04-10T04:02:18.472Z,5.03
2024-04-10T04:04:49.686Z,5.28
2024-04-10T04:07:18.043Z,5.10
2024-04-10T04:09:51.942Z,4.97
2024-04-10T04:12:22.358Z,5.05
2024-04-10T04:14:54.495Z,4.47
2024-04-10T04:17:24.323Z,4.32
2024-04-10T04:19:55.737Z,3.78
2024-04-10T04:22:24.102Z,4.57
2024-04-10T04:24:58.255Z,4.78
2024-04-10T04:27:33.799Z,5.60
2024-04-10T04:30:05.022Z,5.00
2024-04-10T04:32:34.274Z,4.95
2024-04-10T04:35:06.293Z,3.85
2024-04-10T04:37:34.625Z,4.35
2024-04-10T04:40:11.997Z,4.28
2024-04-10T04:42:40.304Z,4.25
2024-04-10T04:45:11.802Z,4.30
2024-04-10T04:47:40.164Z,4.47
2024-04-10T04:50:12.856Z,4.68
2024-04-10T04:52:41.245Z,4.97
2024-04-10T04:55:14.985Z,4.70
2024-04-10T04:57:43.333Z,4.70
2024-04-10T05:00:16.121Z,5.05
2024-04-10T05:02:44.798Z,4.53
2024-04-10T05:05:17.289Z,4.68
2024-04-10T05:07:46.865Z,4.72
2024-04-10T05:10:21.461Z,5.55
2024-04-10T05:12:51.913Z,5.22
2024-04-10T05:15:22.968Z,4.85
2024-04-10T05:17:53.250Z,5.50
2024-04-10T05:20:24.659Z,5.32
2024-04-10T05:22:53.137Z,5.15
2024-04-10T05:25:27.021Z,4.88
2024-04-10T05:27:55.412Z,5.60
2024-04-10T05:30:26.669Z,6.75
2024-04-10T05:32:58.039Z,6.07
2024-04-10T05:35:27.831Z,5.90
2024-04-10T05:38:00.924Z,6.70
2024-04-10T05:40:32.000Z,6.32
2024-04-10T05:43:03.996Z,6.25
2024-04-10T05:45:32.384Z,6.85
2024-04-10T05:48:03.613Z,6.82
2024-04-10T05:50:32.060Z,7.10
2024-04-10T05:53:04.829Z,7.38
2024-04-10T05:55:36.601Z,7.50
2024-04-10T05:58:07.850Z,7.13
2024-04-10T06:00:38.105Z,8.55
2024-04-10T06:03:09.592Z,8.13
2024-04-10T06:05:38.200Z,8.57
2024-04-10T06:08:10.171Z,9.60
2024-04-10T06:10:41.280Z,8.63
2024-04-10T06:13:12.243Z,9.40
2024-04-10T06:16:02.473Z,8.88
2024-04-10T06:18:33.877Z,8.45
2024-04-10T06:21:03.086Z,8.90
2024-04-10T06:26:08.189Z,10.73
2024-04-10T06:28:36.706Z,10.20
2024-04-10T06:31:10.708Z,12.77
2024-04-10T06:36:28.529Z,12.07
2024-04-10T06:38:56.767Z,12.07
2024-04-10T06:41:31.020Z,14.20
2024-04-10T06:43:59.645Z,13.70
2024-04-10T06:46:30.857Z,13.15
2024-04-10T06:48:59.491Z,13.88
2024-04-10T06:51:31.495Z,12.88
2024-04-10T06:53:59.861Z,12.73
2024-04-10T06:56:33.707Z,12.65
2024-04-10T06:59:02.795Z,13.70
2024-04-10T07:01:33.866Z,12.82
2024-04-10T07:04:04.899Z,12.70
2024-04-10T07:06:33.333Z,14.38
2024-04-10T07:09:04.408Z,14.23
2024-04-10T07:11:36.108Z,15.23
2024-04-10T07:14:07.351Z,14.13
2024-04-10T07:16:38.747Z,15.32
2024-04-10T07:19:08.744Z,13.45
2024-04-10T07:21:39.799Z,14.27
2024-04-10T07:24:09.542Z,14.48
2024-04-10T07:26:44.203Z,14.50
2024-04-10T07:29:12.779Z,14.20
2024-04-10T07:31:43.871Z,14.07
2024-04-10T07:34:16.066Z,13.98
2024-04-10T07:36:50.101Z,13.05
2024-04-10T07:39:20.569Z,14.52
2024-04-10T07:41:54.911Z,14.35
2024-04-10T07:44:23.572Z,12.82
2024-04-10T07:46:54.725Z,12.68
2024-04-10T07:49:23.268Z,12.95
2024-04-10T07:51:54.447Z,11.30
2024-04-10T07:54:22.833Z,11.25
2024-04-10T07:56:56.579Z,11.43
2024-04-10T07:59:24.927Z,10.75
2024-04-10T08:01:56.080Z,10.07
2024-04-10T08:04:25.042Z,10.93
2024-04-10T08:06:57.477Z,11.73
2024-04-10T08:09:25.985Z,9.50
2024-04-10T08:11:59.981Z,9.20
2024-04-10T08:14:28.487Z,8.75
2024-04-10T08:16:59.672Z,8.50
2024-04-10T08:19:28.087Z,6.20
2024-04-10T08:21:59.258Z,6.32
2024-04-10T08:24:28.291Z,7.13
2024-04-10T08:27:07.460Z,6.85
2024-04-10T08:29:38.171Z,6.40
2024-04-10T08:32:10.066Z,6.97
2024-04-10T08:34:38.746Z,7.10
2024-04-10T08:37:10.003Z,7.05
2024-04-10T08:39:39.369Z,7.82
2024-04-10T08:42:17.963Z,6.65
2024-04-10T08:44:46.404Z,4.50
2024-04-10T08:47:19.199Z,4.07
2024-04-10T08:49:47.771Z,4.22
2024-04-10T08:52:20.576Z,3.60
2024-04-10T08:54:50.084Z,3.47
2024-04-10T08:57:24.028Z,3.78
2024-04-10T08:59:52.405Z,5.40
2024-04-10T09:02:23.914Z,7.18
2024-04-10T09:04:52.378Z,6.68
2024-04-10T09:07:23.739Z,7.88
2024-04-10T09:09:53.643Z,8.70
2024-04-10T09:12:30.663Z,7.72
2024-04-10T09:15:08.420Z,8.90
2024-04-10T09:17:39.571Z,8.32
2024-04-10T09:20:14.743Z,9.52
2024-04-10T09:22:45.771Z,9.82
2024-04-10T09:25:14.745Z,9.60
2024-04-10T09:30:16.304Z,8.73
2024-04-10T09:32:48.009Z,9.15
2024-04-10T09:35:16.753Z,8.23
2024-04-10T09:37:47.975Z,8.23
2024-04-10T09:40:16.569Z,8.88
2024-04-10T09:42:53.921Z,8.25
2024-04-10T09:45:27.619Z,8.32
2024-04-10T09:48:01.971Z,6.93
2024-04-10T09:50:36.435Z,7.50
2024-04-10T09:53:08.608Z,6.50
2024-04-10T09:55:39.913Z,6.10
2024-04-10T09:58:16.494Z,5.93
2024-04-10T10:00:45.283Z,5.28
2024-04-10T10:03:27.634Z,5.80
2024-04-10T10:06:03.697Z,4.68
2024-04-10T10:08:34.923Z,4.93
2024-04-10T10:11:04.496Z,4.88
2024-04-10T10:13:43.000Z,4.75
2024-04-10T10:16:12.771Z,5.00
2024-04-10T10:18:44.155Z,5.00
2024-04-10T10:21:12.862Z,5.25
2024-04-10T10:23:45.989Z,6.15
2024-04-10T10:26:17.967Z,6.03
2024-04-10T10:28:51.800Z,5.85
2024-04-10T10:31:20.730Z,6.35
2024-04-10T10:33:52.984Z,5.60
2024-04-10T10:36:21.501Z,5.72
2024-04-10T10:38:53.498Z,5.20
2024-04-10T10:41:21.917Z,5.05
2024-04-10T10:44:02.217Z,4.93
2024-04-10T10:46:30.775Z,5.18
2024-04-10T10:49:02.052Z,4.47
2024-04-10T10:51:31.359Z,4.05
2024-04-10T10:54:02.493Z,4.32
2024-04-10T10:56:32.137Z,3.80
2024-04-10T10:59:15.914Z,4.20
2024-04-10T11:01:44.325Z,3.80
2024-04-10T11:04:18.185Z,4.18
2024-04-10T11:06:46.898Z,4.50
2024-04-10T11:09:19.674Z,3.90
2024-04-10T11:11:48.147Z,3.85
2024-04-10T11:14:28.116Z,4.18
2024-04-10T11:16:59.969Z,4.03
2024-04-10T11:19:42.616Z,4.32
2024-04-10T11:22:21.958Z,4.68
2024-04-10T11:24:55.397Z,4.75
2024-04-10T11:27:23.925Z,4.88
2024-04-10T11:29:57.747Z,4.70
2024-04-10T11:32:26.278Z,5.07
2024-04-10T11:34:59.908Z,6.50
2024-04-10T11:37:28.408Z,5.57
2024-04-10T11:40:01.692Z,5.70
2024-04-10T11:42:31.685Z,6.25
2024-04-10T11:45:05.469Z,5.43
2024-04-10T11:47:34.786Z,6.35
2024-04-10T11:50:06.191Z,6.45
2024-04-10T11:52:35.824Z,6.47
2024-04-10T11:55:10.988Z,6.38
2024-04-10T11:57:42.123Z,6.32
2024-04-10T12:00:16.061Z,6.28
2024-04-10T12:02:47.264Z,6.15
2024-04-10T12:05:16.055Z,6.18
2024-04-10T12:07:49.694Z,6.65
2024-04-10T12:10:18.031Z,6.85
2024-04-10T12:12:52.806Z,6.80
2024-04-10T12:15:24.148Z,6.47
2024-04-10T12:17:55.416Z,7.13
2024-04-10T12:20:25.335Z,7.43
2024-04-10T12:22:56.463Z,6.90
2024-04-10T12:25:25.234Z,7.18
2024-04-10T12:30:27.229Z,6.72
2024-04-10T12:32:58.645Z,7.32
2024-04-10T12:35:47.942Z,7.40
2024-04-10T12:38:19.071Z,6.70
2024-04-10T12:41:00.275Z,7.47
2024-04-10T12:43:31.560Z,6.88
2024-04-10T12:46:05.477Z,7.18
2024-04-10T12:48:34.415Z,7.35
2024-04-10T12:51:05.943Z,7.03
2024-04-10T12:53:34.499Z,7.07
2024-04-10T12:56:05.591Z,7.05
2024-04-10T12:58:34.878Z,7.22
2024-04-10T13:01:12.460Z,7.78
2024-04-10T13:03:41.255Z,6.93
2024-04-10T13:06:12.767Z,7.25
2024-04-10T13:08:41.175Z,7.32
2024-04-10T13:11:16.055Z,7.30
2024-04-10T13:13:45.047Z,7.75
2024-04-10T13:16:18.820Z,7.88
2024-04-10T13:18:47.514Z,7.45
2024-04-10T13:21:18.574Z,7.72
2024-04-10T13:23:48.330Z,7.38
2024-04-10T13:26:19.930Z,8.10
2024-04-10T13:28:50.127Z,7.40
2024-04-10T13:31:25.134Z,7.43
2024-04-10T13:33:57.292Z,7.45
2024-04-10T13:36:29.411Z,7.70
2024-04-10T13:38:58.194Z,7.35
2024-04-10T13:44:00.507Z,8.40
2024-04-10T13:46:34.393Z,8.85
2024-04-10T13:49:02.786Z,8.13
2024-04-10T13:51:34.081Z,8.93
2024-04-10T13:54:02.648Z,7.88
2024-04-10T13:56:33.967Z,8.32
2024-04-10T13:59:02.455Z,8.73
2024-04-10T14:01:37.623Z,7.97
2024-04-10T14:04:07.201Z,8.65
2024-04-10T14:06:38.394Z,7.50
2024-04-10T14:09:08.944Z,7.22
2024-04-10T14:11:40.558Z,6.80
2024-04-10T14:14:09.021Z,7.07
2024-04-10T14:16:49.313Z,6.45
2024-04-10T14:19:19.249Z,6.60
2024-04-10T14:21:50.412Z,6.05
2024-04-10T14:24:18.818Z,5.20
2024-04-10T14:26:50.012Z,6.25
2024-04-10T14:29:19.033Z,6.00
2024-04-10T14:34:20.713Z,5.78
2024-04-10T14:36:51.785Z,5.75
2024-04-10T14:39:20.212Z,6.60
2024-04-10T14:41:51.470Z,5.32
2024-04-10T14:44:38.290Z,5.20
2024-04-10T14:47:12.526Z,5.72
2024-04-10T14:49:41.118Z,5.20
2024-04-10T14:52:12.599Z,5.85
2024-04-10T14:54:43.829Z,5.85
2024-04-10T14:57:34.753Z,5.40
2024-04-10T15:00:25.720Z,5.45
2024-04-10T15:02:59.619Z,5.00
2024-04-10T15:05:28.066Z,5.93
2024-04-10T15:07:59.177Z,6.75
2024-04-10T15:10:27.518Z,6.43
2024-04-10T15:12:58.507Z,6.80
2024-04-10T15:15:26.865Z,5.95
2024-04-10T15:18:00.811Z,5.75
2024-04-10T15:20:29.341Z,6.50
2024-04-10T15:23:00.505Z,5.60
2024-04-10T15:25:28.853Z,5.63
2024-04-10T15:28:01.239Z,5.28
2024-04-10T15:30:29.746Z,6.03
2024-04-10T15:33:03.759Z,5.90
2024-04-10T15:35:32.320Z,5.30
2024-04-10T15:38:03.338Z,4.93
2024-04-10T15:40:31.725Z,5.28
2024-04-10T15:43:03.726Z,5.10
2024-04-10T15:45:32.106Z,5.22
2024-04-10T15:48:05.931Z,4.57
2024-04-10T15:50:34.440Z,4.90
2024-04-10T15:53:05.881Z,4.95
2024-04-10T15:55:34.291Z,5.40
2024-04-10T15:58:05.481Z,4.38
2024-04-10T16:00:33.799Z,4.93
2024-04-10T16:03:07.920Z,4.95
2024-04-10T16:05:38.414Z,4.80
2024-04-10T16:08:10.617Z,5.05
2024-04-10T16:10:40.061Z,5.00
2024-04-10T16:13:11.358Z,4.70
2024-04-10T16:15:39.720Z,5.85
2024-04-10T16:18:14.906Z,4.70
2024-04-10T16:20:44.105Z,4.47
2024-04-10T16:23:16.195Z,4.75
2024-04-10T16:25:44.529Z,4.47
2024-04-10T16:28:15.640Z,5.30
2024-04-10T16:30:43.912Z,5.15
2024-04-10T16:33:18.003Z,5.07
2024-04-10T16:35:47.193Z,5.28
2024-04-10T16:40:46.316Z,4.97
2024-04-10T16:43:17.324Z,5.30
2024-04-10T16:45:54.186Z,5.00
2024-04-10T16:48:28.320Z,4.78
2024-04-10T16:50:57.957Z,4.82
2024-04-10T16:53:29.663Z,5.63
2024-04-10T16:55:58.402Z,5.00
2024-04-10T16:58:29.642Z,5.40
2024-04-10T17:01:08.913Z,6.60
2024-04-10T17:03:45.342Z,4.53
2024-04-10T17:06:14.037Z,5.18
2024-04-10T17:08:45.353Z,6.80
2024-04-10T17:11:17.611Z,5.82
2024-04-10T17:13:49.753Z,5.55
2024-04-10T17:16:18.193Z,5.68
2024-04-10T17:19:08.134Z,5.70
2024-04-10T17:21:58.467Z,6.60
2024-04-10T17:24:29.753Z,5.57
2024-04-10T17:26:58.346Z,5.72
2024-04-10T17:29:30.117Z,6.30
2024-04-10T17:32:19.966Z,6.28
2024-04-10T17:34:54.165Z,6.65
2024-04-10T17:37:23.016Z,5.47
2024-04-10T17:39:54.108Z,5.95
2024-04-10T17:42:22.976Z,6.43
2024-04-10T17:44:54.134Z,6.65
2024-04-10T17:47:22.773Z,5.93
2024-04-10T17:49:56.606Z,6.93
2024-04-10T17:52:25.398Z,6.03
2024-04-10T17:54:56.560Z,6.68
2024-04-10T17:57:24.979Z,7.72
2024-04-10T17:59:56.322Z,6.35
2024-04-10T18:02:24.779Z,6.90
2024-04-10T18:04:58.650Z,6.97
2024-04-10T18:07:27.094Z,7.53
2024-04-10T18:10:01.243Z,7.80
2024-04-10T18:12:33.454Z,8.43
2024-04-10T18:15:05.078Z,6.57
2024-04-10T18:17:34.245Z,6.30
2024-04-10T18:20:08.581Z,9.23
2024-04-10T18:22:36.963Z,6.78
2024-04-10T18:25:08.933Z,7.82
2024-04-10T18:27:40.501Z,7.00
2024-04-10T18:30:12.856Z,7.20
2024-04-10T18:32:41.478Z,9.27
2024-04-10T18:35:15.385Z,8.60
2024-04-10T18:37:43.729Z,8.15
2024-04-10T18:40:15.152Z,11.68
2024-04-10T18:42:43.618Z,11.38
2024-04-10T18:45:17.896Z,13.32
2024-04-10T18:47:47.857Z,11.27
2024-04-10T18:50:22.149Z,10.77
2024-04-10T18:52:50.512Z,10.35
2024-04-10T18:55:21.560Z,9.40
2024-04-10T18:57:49.909Z,8.05
2024-04-10T19:00:21.476Z,7.40
2024-04-10T19:02:49.929Z,8.20
2024-04-10T19:05:23.769Z,7.80
2024-04-10T19:07:52.095Z,7.78
2024-04-10T19:10:23.500Z,8.25
2024-04-10T19:12:52.437Z,7.63
2024-04-10T19:15:23.639Z,7.07
2024-04-10T19:17:53.991Z,7.88
2024-04-10T19:20:28.125Z,8.07
2024-04-10T19:22:56.630Z,7.53
2024-04-10T19:25:27.662Z,8.65
2024-04-10T19:27:56.046Z,7.70
2024-04-10T19:30:27.230Z,7.75
2024-04-10T19:32:57.346Z,6.80
2024-04-10T19:35:31.180Z,8.10
2024-04-10T19:37:59.548Z,8.98
2024-04-10T19:40:30.776Z,8.35
2024-04-10T19:42:59.586Z,7.28
2024-04-10T19:45:30.676Z,7.07
2024-04-10T19:47:59.844Z,7.75
2024-04-10T19:50:33.640Z,7.43
2024-04-10T19:53:02.113Z,7.63
2024-04-10T19:55:33.175Z,7.13
2024-04-10T19:58:02.159Z,7.13
2024-04-10T20:00:33.185Z,7.85
2024-04-10T20:03:05.394Z,7.53
2024-04-10T20:05:39.295Z,7.05
2024-04-10T20:08:08.262Z,7.65
2024-04-10T20:10:39.230Z,7.03
2024-04-10T20:13:07.544Z,6.95
2024-04-10T20:15:38.586Z,7.72
2024-04-10T20:18:26.200Z,7.90
2024-04-10T20:21:08.041Z,8.40
2024-04-10T20:23:37.460Z,7.25
2024-04-10T20:26:09.366Z,6.75
2024-04-10T20:28:38.028Z,7.25
2024-04-10T20:31:10.438Z,7.63
2024-04-10T20:33:40.242Z,7.20
2024-04-10T20:36:15.104Z,8.00
2024-04-10T20:38:43.991Z,6.70
2024-04-10T20:41:17.327Z,8.70
2024-04-10T20:43:46.441Z,6.80
2024-04-10T20:46:17.535Z,6.50
2024-04-10T20:48:49.761Z,6.20
2024-04-10T20:51:24.583Z,7.53
2024-04-10T20:53:52.901Z,6.85
2024-04-10T20:56:24.379Z,6.25
2024-04-10T20:58:52.810Z,6.68
2024-04-10T21:01:24.015Z,7.28
2024-04-10T21:03:53.322Z,7.25
2024-04-10T21:06:24.183Z,6.88
2024-04-10T21:09:10.949Z,7.32
2024-04-10T21:11:57.928Z,6.75
2024-04-10T21:14:44.955Z,7.55
2024-04-10T21:17:33.379Z,7.35
2024-04-10T21:20:20.114Z,7.20
2024-04-10T21:23:09.823Z,6.53
2024-04-10T21:25:56.801Z,6.45
2024-04-10T21:28:43.559Z,6.18
2024-04-10T21:31:30.147Z,7.32
2024-04-10T21:34:17.082Z,6.38
2024-04-10T21:37:03.704Z,5.47
2024-04-10T21:39:52.944Z,5.60
2024-04-10T21:42:39.887Z,6.15
2024-04-10T21:45:27.136Z,6.63
2024-04-10T21:48:14.263Z,6.35
2024-04-10T21:51:01.474Z,6.00
2024-04-10T21:53:48.300Z,5.80
2024-04-10T21:56:38.065Z,7.22
2024-04-10T21:59:25.004Z,6.55
2024-04-10T22:05:00.939Z,5.53
2024-04-10T22:07:54.241Z,5.10
2024-04-10T22:10:30.166Z,5.32
2024-04-10T22:13:03.872Z,5.25
2024-04-10T22:15:35.613Z,6.07
2024-04-10T22:18:21.686Z,5.70
2024-04-10T22:21:09.711Z,4.97
2024-04-10T22:23:56.386Z,6.05
2024-04-10T22:27:08.928Z,5.00
2024-04-10T22:29:42.776Z,5.10
2024-04-10T22:32:14.476Z,5.70
2024-04-10T22:34:42.905Z,4.85
2024-04-10T22:37:14.451Z,5.43
2024-04-10T22:39:42.738Z,5.43
2024-04-10T22:42:15.610Z,5.15
2024-04-10T22:44:50.974Z,4.57
2024-04-10T22:47:22.324Z,4.80
2024-04-10T22:49:52.430Z,4.75
2024-04-10T22:52:23.495Z,4.75
2024-04-10T22:54:51.831Z,4.68
2024-04-10T22:57:22.795Z,4.88
2024-04-10T22:59:53.845Z,5.13
2024-04-10T23:02:25.489Z,6.18
2024-04-10T23:04:54.090Z,6.32
2024-04-10T23:08:01.505Z,7.22
2024-04-10T23:10:13.356Z,4.80
2024-04-10T23:12:44.529Z,4.72
2024-04-10T23:15:15.604Z,5.78
2024-04-10T23:17:46.773Z,4.50
2024-04-10T23:20:15.767Z,4.43
2024-04-10T23:22:48.092Z,4.60
2024-04-10T23:25:16.562Z,5.10
2024-04-10T23:27:47.550Z,4.38
2024-04-10T23:30:18.559Z,5.68
2024-04-10T23:32:49.761Z,5.22
2024-04-10T23:35:18.235Z,4.45
2024-04-10T23:37:50.855Z,4.47
2024-04-10T23:40:19.203Z,5.25
2024-04-10T23:42:50.302Z,5.00
2024-04-10T23:45:21.276Z,5.07
2024-04-10T23:47:52.337Z,4.72
2024-04-10T23:50:20.718Z,5.05
2024-04-10T23:52:51.749Z,4.43
2024-04-10T23:55:20.081Z,4.80
2024-04-10T23:57:51.021Z,4.75
